sensor_id;sensor_type;location;lat;lon;timestamp;P1;durP1;ratioP1;P2;durP2;ratioP2
73642;SDS011;61938;48.652;9.292;2023-08-06T00:02:12;12.00;;;7.45;;
73642;SDS011;61938;48.652;9.292;2023-08-06T00:04:37;13.18;;;7.60;;
73642;SDS011;61938;48.652;9.292;2023-08-06T00:07:03;10.82;;;7.07;;
73642;SDS011;61938;48.652;9.292;2023-08-06T00:09:28;11.35;;;7.45;;
73642;SDS011;61938;48.652;9.292;2023-08-06T00:11:54;15.75;;;7.82;;
73642;SDS011;61938;48.652;9.292;2023-08-06T00:14:19;13.13;;;8.18;;
73642;SDS011;61938;48.652;9.292;2023-08-06T00:16:45;12.38;;;7.78;;
73642;SDS011;61938;48.652;9.292;2023-08-06T00:19:11;13.40;;;8.40;;
73642;SDS011;61938;48.652;9.292;2023-08-06T00:21:37;15.00;;;7.90;;
73642;SDS011;61938;48.652;9.292;2023-08-06T00:24:02;11.93;;;8.00;;
73642;SDS011;61938;48.652;9.292;2023-08-06T00:26:28;11.43;;;7.82;;
73642;SDS011;61938;48.652;9.292;2023-08-06T00:28:53;10.10;;;7.30;;
73642;SDS011;61938;48.652;9.292;2023-08-06T00:31:19;12.60;;;7.45;;
73642;SDS011;61938;48.652;9.292;2023-08-06T00:33:44;11.30;;;7.15;;
73642;SDS011;61938;48.652;9.292;2023-08-06T00:36:10;12.00;;;7.40;;
73642;SDS011;61938;48.652;9.292;2023-08-06T00:38:35;16.08;;;7.35;;
73642;SDS011;61938;48.652;9.292;2023-08-06T00:41:01;11.00;;;7.50;;
73642;SDS011;61938;48.652;9.292;2023-08-06T00:43:26;11.77;;;7.35;;
73642;SDS011;61938;48.652;9.292;2023-08-06T00:45:52;13.60;;;8.10;;
73642;SDS011;61938;48.652;9.292;2023-08-06T00:48:17;14.18;;;7.75;;
73642;SDS011;61938;48.652;9.292;2023-08-06T00:50:45;15.90;;;7.88;;
73642;SDS011;61938;48.652;9.292;2023-08-06T00:53:10;12.13;;;7.82;;
73642;SDS011;61938;48.652;9.292;2023-08-06T00:55:36;13.15;;;7.70;;
73642;SDS011;61938;48.652;9.292;2023-08-06T00:58:02;12.93;;;8.10;;
73642;SDS011;61938;48.652;9.292;2023-08-06T01:00:28;13.05;;;8.57;;
73642;SDS011;61938;48.652;9.292;2023-08-06T01:02:54;13.70;;;8.43;;
73642;SDS011;61938;48.652;9.292;2023-08-06T01:05:20;12.70;;;8.13;;
73642;SDS011;61938;48.652;9.292;2023-08-06T01:08:05;11.65;;;7.22;;
73642;SDS011;61938;48.652;9.292;2023-08-06T01:10:57;11.50;;;7.93;;
73642;SDS011;61938;48.652;9.292;2023-08-06T01:13:48;16.00;;;7.60;;
73642;SDS011;61938;48.652;9.292;2023-08-06T01:16:19;15.50;;;7.95;;
73642;SDS011;61938;48.652;9.292;2023-08-06T01:18:46;13.73;;;7.47;;
73642;SDS011;61938;48.652;9.292;2023-08-06T01:21:18;11.55;;;6.88;;
73642;SDS011;61938;48.652;9.292;2023-08-06T01:23:44;10.50;;;6.45;;
73642;SDS011;61938;48.652;9.292;2023-08-06T01:29:31;8.02;;;5.78;;
73642;SDS011;61938;48.652;9.292;2023-08-06T01:32:00;7.50;;;5.45;;
73642;SDS011;61938;48.652;9.292;2023-08-06T01:34:28;10.57;;;5.60;;
73642;SDS011;61938;48.652;9.292;2023-08-06T01:36:56;8.48;;;5.15;;
73642;SDS011;61938;48.652;9.292;2023-08-06T01:39:22;9.50;;;5.15;;
73642;SDS011;61938;48.652;9.292;2023-08-06T01:41:48;8.43;;;4.82;;
73642;SDS011;61938;48.652;9.292;2023-08-06T01:44:14;8.48;;;4.68;;
73642;SDS011;61938;48.652;9.292;2023-08-06T01:46:40;9.63;;;4.43;;
73642;SDS011;61938;48.652;9.292;2023-08-06T01:49:06;8.07;;;4.22;;
73642;SDS011;61938;48.652;9.292;2023-08-06T01:51:31;7.75;;;4.68;;
73642;SDS011;61938;48.652;9.292;2023-08-06T01:53:57;6.75;;;4.53;;
73642;SDS011;61938;48.652;9.292;2023-08-06T01:56:22;7.60;;;4.10;;
73642;SDS011;61938;48.652;9.292;2023-08-06T01:58:47;7.60;;;4.10;;
73642;SDS011;61938;48.652;9.292;2023-08-06T02:01:13;7.53;;;4.22;;
73642;SDS011;61938;48.652;9.292;2023-08-06T02:03:38;8.82;;;4.15;;
73642;SDS011;61938;48.652;9.292;2023-08-06T02:06:04;7.63;;;4.13;;
73642;SDS011;61938;48.652;9.292;2023-08-06T02:08:29;5.55;;;3.90;;
73642;SDS011;61938;48.652;9.292;2023-08-06T02:10:55;5.28;;;3.90;;
73642;SDS011;61938;48.652;9.292;2023-08-06T02:13:21;7.57;;;3.92;;
73642;SDS011;61938;48.652;9.292;2023-08-06T02:15:46;10.30;;;4.13;;
73642;SDS011;61938;48.652;9.292;2023-08-06T02:18:15;12.50;;;3.97;;
73642;SDS011;61938;48.652;9.292;2023-08-06T02:20:41;9.25;;;4.35;;
73642;SDS011;61938;48.652;9.292;2023-08-06T02:23:07;7.38;;;3.90;;
73642;SDS011;61938;48.652;9.292;2023-08-06T02:25:33;6.43;;;4.38;;
73642;SDS011;61938;48.652;9.292;2023-08-06T02:27:58;5.32;;;3.83;;
73642;SDS011;61938;48.652;9.292;2023-08-06T02:30:24;5.00;;;4.00;;
73642;SDS011;61938;48.652;9.292;2023-08-06T02:32:49;5.82;;;3.80;;
73642;SDS011;61938;48.652;9.292;2023-08-06T02:35:15;7.55;;;4.00;;
73642;SDS011;61938;48.652;9.292;2023-08-06T02:37:40;9.75;;;4.45;;
73642;SDS011;61938;48.652;9.292;2023-08-06T02:40:06;5.63;;;3.70;;
73642;SDS011;61938;48.652;9.292;2023-08-06T02:42:32;10.20;;;4.10;;
73642;SDS011;61938;48.652;9.292;2023-08-06T02:44:57;8.23;;;3.95;;
73642;SDS011;61938;48.652;9.292;2023-08-06T02:47:23;6.40;;;3.75;;
73642;SDS011;61938;48.652;9.292;2023-08-06T02:49:49;8.15;;;3.50;;
73642;SDS011;61938;48.652;9.292;2023-08-06T02:52:14;6.65;;;4.30;;
73642;SDS011;61938;48.652;9.292;2023-08-06T02:54:40;6.97;;;4.40;;
73642;SDS011;61938;48.652;9.292;2023-08-06T02:57:05;15.05;;;3.95;;
73642;SDS011;61938;48.652;9.292;2023-08-06T02:59:31;6.38;;;4.00;;
73642;SDS011;61938;48.652;9.292;2023-08-06T03:01:57;8.05;;;3.80;;
73642;SDS011;61938;48.652;9.292;2023-08-06T03:04:23;8.02;;;3.58;;
73642;SDS011;61938;48.652;9.292;2023-08-06T03:06:51;7.25;;;3.50;;
73642;SDS011;61938;48.652;9.292;2023-08-06T03:09:17;7.05;;;3.30;;
73642;SDS011;61938;48.652;9.292;2023-08-06T03:11:43;10.82;;;4.20;;
73642;SDS011;61938;48.652;9.292;2023-08-06T03:14:08;6.03;;;4.00;;
73642;SDS011;61938;48.652;9.292;2023-08-06T03:16:34;12.90;;;3.67;;
73642;SDS011;61938;48.652;9.292;2023-08-06T03:19:00;9.90;;;3.70;;
73642;SDS011;61938;48.652;9.292;2023-08-06T03:21:26;5.47;;;3.45;;
73642;SDS011;61938;48.652;9.292;2023-08-06T03:23:51;9.63;;;3.65;;
73642;SDS011;61938;48.652;9.292;2023-08-06T03:26:17;5.43;;;3.10;;
73642;SDS011;61938;48.652;9.292;2023-08-06T03:28:42;6.65;;;2.95;;
73642;SDS011;61938;48.652;9.292;2023-08-06T03:31:08;5.47;;;3.15;;
73642;SDS011;61938;48.652;9.292;2023-08-06T03:33:33;7.47;;;3.00;;
73642;SDS011;61938;48.652;9.292;2023-08-06T03:35:59;7.97;;;3.10;;
73642;SDS011;61938;48.652;9.292;2023-08-06T03:38:25;6.38;;;2.88;;
73642;SDS011;61938;48.652;9.292;2023-08-06T03:40:50;6.20;;;2.72;;
73642;SDS011;61938;48.652;9.292;2023-08-06T03:43:16;11.57;;;3.50;;
73642;SDS011;61938;48.652;9.292;2023-08-06T03:45:41;5.05;;;2.80;;
73642;SDS011;61938;48.652;9.292;2023-08-06T03:48:07;6.70;;;3.17;;
73642;SDS011;61938;48.652;9.292;2023-08-06T03:50:33;6.55;;;3.30;;
73642;SDS011;61938;48.652;9.292;2023-08-06T03:52:59;5.85;;;3.10;;
73642;SDS011;61938;48.652;9.292;2023-08-06T03:55:25;6.63;;;3.05;;
73642;SDS011;61938;48.652;9.292;2023-08-06T03:57:50;9.20;;;3.38;;
73642;SDS011;61938;48.652;9.292;2023-08-06T04:00:16;11.63;;;2.92;;
73642;SDS011;61938;48.652;9.292;2023-08-06T04:02:42;7.18;;;2.92;;
73642;SDS011;61938;48.652;9.292;2023-08-06T04:05:07;6.20;;;2.78;;
73642;SDS011;61938;48.652;9.292;2023-08-06T04:07:33;6.18;;;2.85;;
73642;SDS011;61938;48.652;9.292;2023-08-06T04:10:00;8.10;;;3.08;;
73642;SDS011;61938;48.652;9.292;2023-08-06T04:12:27;3.65;;;2.50;;
73642;SDS011;61938;48.652;9.292;2023-08-06T04:14:52;7.95;;;2.95;;
73642;SDS011;61938;48.652;9.292;2023-08-06T04:17:19;6.30;;;3.08;;
73642;SDS011;61938;48.652;9.292;2023-08-06T04:19:49;7.13;;;2.95;;
73642;SDS011;61938;48.652;9.292;2023-08-06T04:22:16;5.40;;;2.42;;
73642;SDS011;61938;48.652;9.292;2023-08-06T04:24:42;8.63;;;2.92;;
73642;SDS011;61938;48.652;9.292;2023-08-06T04:27:08;5.88;;;2.83;;
73642;SDS011;61938;48.652;9.292;2023-08-06T04:29:34;6.63;;;3.00;;
73642;SDS011;61938;48.652;9.292;2023-08-06T04:32:00;7.60;;;3.13;;
73642;SDS011;61938;48.652;9.292;2023-08-06T04:34:25;7.55;;;2.75;;
73642;SDS011;61938;48.652;9.292;2023-08-06T04:36:51;6.45;;;2.25;;
73642;SDS011;61938;48.652;9.292;2023-08-06T04:39:16;6.15;;;2.38;;
73642;SDS011;61938;48.652;9.292;2023-08-06T04:41:42;5.60;;;2.28;;
73642;SDS011;61938;48.652;9.292;2023-08-06T04:44:07;8.02;;;2.58;;
73642;SDS011;61938;48.652;9.292;2023-08-06T04:46:33;7.22;;;1.90;;
73642;SDS011;61938;48.652;9.292;2023-08-06T04:48:58;5.38;;;1.67;;
73642;SDS011;61938;48.652;9.292;2023-08-06T04:51:24;2.20;;;1.42;;
73642;SDS011;61938;48.652;9.292;2023-08-06T04:53:49;4.57;;;1.92;;
73642;SDS011;61938;48.652;9.292;2023-08-06T04:56:15;5.60;;;1.45;;
73642;SDS011;61938;48.652;9.292;2023-08-06T04:58:40;5.28;;;1.60;;
73642;SDS011;61938;48.652;9.292;2023-08-06T05:01:06;3.30;;;1.52;;
73642;SDS011;61938;48.652;9.292;2023-08-06T05:03:32;5.32;;;1.40;;
73642;SDS011;61938;48.652;9.292;2023-08-06T05:05:57;2.28;;;1.23;;
73642;SDS011;61938;48.652;9.292;2023-08-06T05:08:23;6.80;;;1.60;;
73642;SDS011;61938;48.652;9.292;2023-08-06T05:10:48;4.38;;;1.38;;
73642;SDS011;61938;48.652;9.292;2023-08-06T05:13:13;2.90;;;1.48;;
73642;SDS011;61938;48.652;9.292;2023-08-06T05:15:39;6.65;;;1.70;;
73642;SDS011;61938;48.652;9.292;2023-08-06T05:18:07;3.03;;;1.42;;
73642;SDS011;61938;48.652;9.292;2023-08-06T05:20:35;4.05;;;1.63;;
73642;SDS011;61938;48.652;9.292;2023-08-06T05:23:02;7.18;;;1.30;;
73642;SDS011;61938;48.652;9.292;2023-08-06T05:25:27;4.75;;;1.40;;
73642;SDS011;61938;48.652;9.292;2023-08-06T05:27:53;3.90;;;1.90;;
73642;SDS011;61938;48.652;9.292;2023-08-06T05:30:18;4.13;;;1.65;;
73642;SDS011;61938;48.652;9.292;2023-08-06T05:32:44;4.60;;;1.90;;
73642;SDS011;61938;48.652;9.292;2023-08-06T05:35:09;2.80;;;1.48;;
73642;SDS011;61938;48.652;9.292;2023-08-06T05:37:34;4.00;;;1.30;;
73642;SDS011;61938;48.652;9.292;2023-08-06T05:40:00;2.65;;;1.38;;
73642;SDS011;61938;48.652;9.292;2023-08-06T05:42:26;2.88;;;1.17;;
73642;SDS011;61938;48.652;9.292;2023-08-06T05:44:52;2.60;;;1.17;;
73642;SDS011;61938;48.652;9.292;2023-08-06T05:47:17;3.05;;;1.17;;
73642;SDS011;61938;48.652;9.292;2023-08-06T05:49:44;7.75;;;1.55;;
73642;SDS011;61938;48.652;9.292;2023-08-06T05:52:10;5.68;;;1.27;;
73642;SDS011;61938;48.652;9.292;2023-08-06T05:54:35;2.78;;;1.30;;
73642;SDS011;61938;48.652;9.292;2023-08-06T05:57:01;3.00;;;0.90;;
73642;SDS011;61938;48.652;9.292;2023-08-06T05:59:27;2.55;;;1.08;;
73642;SDS011;61938;48.652;9.292;2023-08-06T06:01:52;5.47;;;1.30;;
73642;SDS011;61938;48.652;9.292;2023-08-06T06:04:18;2.63;;;1.13;;
73642;SDS011;61938;48.652;9.292;2023-08-06T06:06:43;3.92;;;1.48;;
73642;SDS011;61938;48.652;9.292;2023-08-06T06:09:09;9.40;;;1.25;;
73642;SDS011;61938;48.652;9.292;2023-08-06T06:11:35;5.45;;;1.30;;
73642;SDS011;61938;48.652;9.292;2023-08-06T06:14:00;3.35;;;1.13;;
73642;SDS011;61938;48.652;9.292;2023-08-06T06:16:26;3.67;;;1.35;;
73642;SDS011;61938;48.652;9.292;2023-08-06T06:18:51;2.35;;;0.98;;
73642;SDS011;61938;48.652;9.292;2023-08-06T06:21:17;3.25;;;0.70;;
73642;SDS011;61938;48.652;9.292;2023-08-06T06:23:42;2.35;;;1.25;;
73642;SDS011;61938;48.652;9.292;2023-08-06T06:26:08;5.13;;;1.13;;
73642;SDS011;61938;48.652;9.292;2023-08-06T06:28:34;2.63;;;1.00;;
73642;SDS011;61938;48.652;9.292;2023-08-06T06:31:00;4.60;;;0.98;;
73642;SDS011;61938;48.652;9.292;2023-08-06T06:33:26;6.35;;;0.98;;
73642;SDS011;61938;48.652;9.292;2023-08-06T06:35:52;6.03;;;1.83;;
73642;SDS011;61938;48.652;9.292;2023-08-06T06:38:17;5.38;;;1.10;;
73642;SDS011;61938;48.652;9.292;2023-08-06T06:40:43;5.00;;;1.00;;
73642;SDS011;61938;48.652;9.292;2023-08-06T06:43:08;4.38;;;1.10;;
73642;SDS011;61938;48.652;9.292;2023-08-06T06:45:34;6.32;;;1.02;;
73642;SDS011;61938;48.652;9.292;2023-08-06T06:47:59;4.80;;;0.88;;
73642;SDS011;61938;48.652;9.292;2023-08-06T06:50:25;4.70;;;0.98;;
73642;SDS011;61938;48.652;9.292;2023-08-06T06:52:51;5.80;;;1.17;;
73642;SDS011;61938;48.652;9.292;2023-08-06T06:55:16;1.90;;;0.98;;
73642;SDS011;61938;48.652;9.292;2023-08-06T06:57:42;2.67;;;1.08;;
73642;SDS011;61938;48.652;9.292;2023-08-06T07:00:07;2.40;;;0.93;;
73642;SDS011;61938;48.652;9.292;2023-08-06T07:02:33;2.63;;;0.82;;
73642;SDS011;61938;48.652;9.292;2023-08-06T07:04:59;4.38;;;0.80;;
73642;SDS011;61938;48.652;9.292;2023-08-06T07:07:24;1.15;;;0.60;;
73642;SDS011;61938;48.652;9.292;2023-08-06T07:09:50;1.55;;;0.80;;
73642;SDS011;61938;48.652;9.292;2023-08-06T07:12:15;1.35;;;0.50;;
73642;SDS011;61938;48.652;9.292;2023-08-06T07:14:41;0.93;;;0.57;;
73642;SDS011;61938;48.652;9.292;2023-08-06T07:17:06;1.02;;;0.68;;
73642;SDS011;61938;48.652;9.292;2023-08-06T07:19:32;3.70;;;0.80;;
73642;SDS011;61938;48.652;9.292;2023-08-06T07:21:57;3.22;;;0.75;;
73642;SDS011;61938;48.652;9.292;2023-08-06T07:24:23;1.42;;;0.50;;
73642;SDS011;61938;48.652;9.292;2023-08-06T07:26:48;0.95;;;0.60;;
73642;SDS011;61938;48.652;9.292;2023-08-06T07:29:14;1.65;;;0.80;;
73642;SDS011;61938;48.652;9.292;2023-08-06T07:31:44;6.88;;;1.05;;
73642;SDS011;61938;48.652;9.292;2023-08-06T07:34:10;1.40;;;0.60;;
73642;SDS011;61938;48.652;9.292;2023-08-06T07:36:35;2.15;;;0.70;;
73642;SDS011;61938;48.652;9.292;2023-08-06T07:39:01;3.80;;;0.65;;
73642;SDS011;61938;48.652;9.292;2023-08-06T07:41:26;1.55;;;0.70;;
73642;SDS011;61938;48.652;9.292;2023-08-06T07:43:52;2.25;;;0.70;;
73642;SDS011;61938;48.652;9.292;2023-08-06T07:46:17;1.42;;;0.40;;
73642;SDS011;61938;48.652;9.292;2023-08-06T07:48:43;3.47;;;0.40;;
73642;SDS011;61938;48.652;9.292;2023-08-06T07:51:08;4.38;;;0.60;;
73642;SDS011;61938;48.652;9.292;2023-08-06T07:53:34;1.20;;;0.60;;
73642;SDS011;61938;48.652;9.292;2023-08-06T07:55:59;0.77;;;0.60;;
73642;SDS011;61938;48.652;9.292;2023-08-06T07:58:27;2.50;;;0.63;;
73642;SDS011;61938;48.652;9.292;2023-08-06T08:00:54;1.70;;;0.77;;
73642;SDS011;61938;48.652;9.292;2023-08-06T08:03:20;2.25;;;0.55;;
73642;SDS011;61938;48.652;9.292;2023-08-06T08:05:45;0.40;;;0.40;;
73642;SDS011;61938;48.652;9.292;2023-08-06T08:08:11;2.28;;;0.50;;
73642;SDS011;61938;48.652;9.292;2023-08-06T08:10:36;0.60;;;0.28;;
73642;SDS011;61938;48.652;9.292;2023-08-06T08:13:03;3.13;;;0.38;;
73642;SDS011;61938;48.652;9.292;2023-08-06T08:15:29;1.30;;;0.40;;
73642;SDS011;61938;48.652;9.292;2023-08-06T08:17:56;1.85;;;0.52;;
73642;SDS011;61938;48.652;9.292;2023-08-06T08:20:22;1.07;;;0.30;;
73642;SDS011;61938;48.652;9.292;2023-08-06T08:22:48;0.52;;;0.30;;
73642;SDS011;61938;48.652;9.292;2023-08-06T08:25:13;1.58;;;0.60;;
73642;SDS011;61938;48.652;9.292;2023-08-06T08:27:40;0.68;;;0.35;;
73642;SDS011;61938;48.652;9.292;2023-08-06T08:30:06;0.82;;;0.45;;
73642;SDS011;61938;48.652;9.292;2023-08-06T08:32:32;0.82;;;0.50;;
73642;SDS011;61938;48.652;9.292;2023-08-06T08:34:57;0.50;;;0.30;;
73642;SDS011;61938;48.652;9.292;2023-08-06T08:37:23;1.30;;;0.43;;
73642;SDS011;61938;48.652;9.292;2023-08-06T08:39:49;1.67;;;0.40;;
73642;SDS011;61938;48.652;9.292;2023-08-06T08:42:15;0.80;;;0.38;;
73642;SDS011;61938;48.652;9.292;2023-08-06T08:44:41;1.30;;;0.25;;
73642;SDS011;61938;48.652;9.292;2023-08-06T08:47:08;0.20;;;0.20;;
73642;SDS011;61938;48.652;9.292;2023-08-06T08:49:35;0.80;;;0.57;;
73642;SDS011;61938;48.652;9.292;2023-08-06T08:52:02;1.27;;;0.22;;
73642;SDS011;61938;48.652;9.292;2023-08-06T08:54:31;0.85;;;0.20;;
73642;SDS011;61938;48.652;9.292;2023-08-06T08:56:58;2.65;;;0.20;;
73642;SDS011;61938;48.652;9.292;2023-08-06T08:59:24;0.40;;;0.22;;
73642;SDS011;61938;48.652;9.292;2023-08-06T09:01:50;1.73;;;0.63;;
73642;SDS011;61938;48.652;9.292;2023-08-06T09:04:16;2.05;;;0.30;;
73642;SDS011;61938;48.652;9.292;2023-08-06T09:06:42;0.45;;;0.17;;
73642;SDS011;61938;48.652;9.292;2023-08-06T09:09:12;0.95;;;0.20;;
73642;SDS011;61938;48.652;9.292;2023-08-06T09:11:43;2.55;;;0.22;;
73642;SDS011;61938;48.652;9.292;2023-08-06T09:14:09;0.35;;;0.25;;
73642;SDS011;61938;48.652;9.292;2023-08-06T09:16:36;1.10;;;0.20;;
73642;SDS011;61938;48.652;9.292;2023-08-06T09:21:36;0.20;;;0.20;;
73642;SDS011;61938;48.652;9.292;2023-08-06T09:24:07;1.02;;;0.20;;
73642;SDS011;61938;48.652;9.292;2023-08-06T09:26:36;0.50;;;0.30;;
73642;SDS011;61938;48.652;9.292;2023-08-06T09:29:04;1.55;;;0.10;;
73642;SDS011;61938;48.652;9.292;2023-08-06T09:31:47;0.77;;;0.13;;
73642;SDS011;61938;48.652;9.292;2023-08-06T09:34:17;2.65;;;0.30;;
73642;SDS011;61938;48.652;9.292;2023-08-06T09:36:47;0.35;;;0.20;;
73642;SDS011;61938;48.652;9.292;2023-08-06T09:39:17;1.17;;;0.20;;
73642;SDS011;61938;48.652;9.292;2023-08-06T09:41:44;0.20;;;0.20;;
73642;SDS011;61938;48.652;9.292;2023-08-06T09:44:19;0.75;;;0.20;;
73642;SDS011;61938;48.652;9.292;2023-08-06T09:46:50;0.47;;;0.10;;
73642;SDS011;61938;48.652;9.292;2023-08-06T09:49:17;0.85;;;0.20;;
73642;SDS011;61938;48.652;9.292;2023-08-06T09:51:45;0.30;;;0.10;;
73642;SDS011;61938;48.652;9.292;2023-08-06T09:54:15;1.60;;;0.40;;
73642;SDS011;61938;48.652;9.292;2023-08-06T09:56:41;0.17;;;0.13;;
73642;SDS011;61938;48.652;9.292;2023-08-06T09:59:07;0.10;;;0.10;;
73642;SDS011;61938;48.652;9.292;2023-08-06T10:01:34;0.80;;;0.20;;
73642;SDS011;61938;48.652;9.292;2023-08-06T10:04:01;0.57;;;0.20;;
73642;SDS011;61938;48.652;9.292;2023-08-06T10:06:28;0.25;;;0.15;;
73642;SDS011;61938;48.652;9.292;2023-08-06T10:08:54;2.10;;;0.17;;
73642;SDS011;61938;48.652;9.292;2023-08-06T10:11:21;0.40;;;0.28;;
73642;SDS011;61938;48.652;9.292;2023-08-06T10:13:49;0.20;;;0.20;;
73642;SDS011;61938;48.652;9.292;2023-08-06T10:16:18;0.60;;;0.20;;
73642;SDS011;61938;48.652;9.292;2023-08-06T10:18:44;0.20;;;0.17;;
73642;SDS011;61938;48.652;9.292;2023-08-06T10:21:11;1.50;;;0.30;;
73642;SDS011;61938;48.652;9.292;2023-08-06T10:23:39;0.17;;;0.17;;
73642;SDS011;61938;48.652;9.292;2023-08-06T10:26:05;2.38;;;0.30;;
73642;SDS011;61938;48.652;9.292;2023-08-06T10:28:34;1.42;;;0.52;;
73642;SDS011;61938;48.652;9.292;2023-08-06T10:31:03;0.70;;;0.25;;
73642;SDS011;61938;48.652;9.292;2023-08-06T10:33:46;0.65;;;0.25;;
73642;SDS011;61938;48.652;9.292;2023-08-06T10:36:12;0.20;;;0.20;;
73642;SDS011;61938;48.652;9.292;2023-08-06T10:38:48;3.60;;;0.20;;
73642;SDS011;61938;48.652;9.292;2023-08-06T10:41:15;0.60;;;0.20;;
73642;SDS011;61938;48.652;9.292;2023-08-06T10:43:49;0.40;;;0.20;;
73642;SDS011;61938;48.652;9.292;2023-08-06T10:46:27;2.40;;;0.30;;
73642;SDS011;61938;48.652;9.292;2023-08-06T10:48:53;0.50;;;0.30;;
73642;SDS011;61938;48.652;9.292;2023-08-06T10:51:18;1.65;;;0.40;;
73642;SDS011;61938;48.652;9.292;2023-08-06T10:53:44;1.10;;;0.30;;
73642;SDS011;61938;48.652;9.292;2023-08-06T10:56:12;0.25;;;0.20;;
73642;SDS011;61938;48.652;9.292;2023-08-06T10:58:41;0.60;;;0.38;;
73642;SDS011;61938;48.652;9.292;2023-08-06T11:01:07;0.20;;;0.20;;
73642;SDS011;61938;48.652;9.292;2023-08-06T11:03:33;0.25;;;0.20;;
73642;SDS011;61938;48.652;9.292;2023-08-06T11:05:59;0.20;;;0.20;;
73642;SDS011;61938;48.652;9.292;2023-08-06T11:08:29;0.40;;;0.20;;
73642;SDS011;61938;48.652;9.292;2023-08-06T11:11:07;0.25;;;0.17;;
73642;SDS011;61938;48.652;9.292;2023-08-06T11:13:38;0.13;;;0.10;;
73642;SDS011;61938;48.652;9.292;2023-08-06T11:16:13;1.42;;;0.15;;
73642;SDS011;61938;48.652;9.292;2023-08-06T11:18:41;1.13;;;0.40;;
73642;SDS011;61938;48.652;9.292;2023-08-06T11:21:07;0.32;;;0.30;;
73642;SDS011;61938;48.652;9.292;2023-08-06T11:23:33;1.48;;;0.52;;
73642;SDS011;61938;48.652;9.292;2023-08-06T11:25:59;0.70;;;0.38;;
73642;SDS011;61938;48.652;9.292;2023-08-06T11:28:25;3.35;;;0.40;;
73642;SDS011;61938;48.652;9.292;2023-08-06T11:30:51;2.05;;;0.30;;
73642;SDS011;61938;48.652;9.292;2023-08-06T11:33:26;2.45;;;0.10;;
73642;SDS011;61938;48.652;9.292;2023-08-06T11:35:52;0.55;;;0.20;;
73642;SDS011;61938;48.652;9.292;2023-08-06T11:38:20;0.80;;;0.30;;
73642;SDS011;61938;48.652;9.292;2023-08-06T11:40:45;0.38;;;0.22;;
73642;SDS011;61938;48.652;9.292;2023-08-06T11:43:12;2.33;;;0.30;;
73642;SDS011;61938;48.652;9.292;2023-08-06T11:45:38;0.17;;;0.10;;
73642;SDS011;61938;48.652;9.292;2023-08-06T11:48:05;0.32;;;0.30;;
73642;SDS011;61938;48.652;9.292;2023-08-06T11:50:31;0.73;;;0.50;;
73642;SDS011;61938;48.652;9.292;2023-08-06T11:52:59;1.83;;;0.68;;
73642;SDS011;61938;48.652;9.292;2023-08-06T11:55:26;2.45;;;0.80;;
73642;SDS011;61938;48.652;9.292;2023-08-06T11:57:56;1.35;;;0.60;;
73642;SDS011;61938;48.652;9.292;2023-08-06T12:00:24;0.50;;;0.28;;
73642;SDS011;61938;48.652;9.292;2023-08-06T12:02:51;0.93;;;0.52;;
73642;SDS011;61938;48.652;9.292;2023-08-06T12:05:18;0.90;;;0.47;;
73642;SDS011;61938;48.652;9.292;2023-08-06T12:07:48;2.95;;;0.50;;
73642;SDS011;61938;48.652;9.292;2023-08-06T12:10:15;1.10;;;0.60;;
73642;SDS011;61938;48.652;9.292;2023-08-06T12:12:41;3.78;;;0.88;;
73642;SDS011;61938;48.652;9.292;2023-08-06T12:15:07;1.00;;;0.68;;
73642;SDS011;61938;48.652;9.292;2023-08-06T12:17:34;1.60;;;0.70;;
73642;SDS011;61938;48.652;9.292;2023-08-06T12:20:01;6.70;;;0.90;;
73642;SDS011;61938;48.652;9.292;2023-08-06T12:22:30;0.80;;;0.57;;
73642;SDS011;61938;48.652;9.292;2023-08-06T12:25:00;1.40;;;0.95;;
73642;SDS011;61938;48.652;9.292;2023-08-06T12:27:32;1.13;;;0.85;;
73642;SDS011;61938;48.652;9.292;2023-08-06T12:30:01;1.73;;;0.90;;
73642;SDS011;61938;48.652;9.292;2023-08-06T12:32:28;1.20;;;0.70;;
73642;SDS011;61938;48.652;9.292;2023-08-06T12:34:54;1.90;;;0.77;;
73642;SDS011;61938;48.652;9.292;2023-08-06T12:37:19;2.58;;;1.00;;
73642;SDS011;61938;48.652;9.292;2023-08-06T12:39:45;2.97;;;1.25;;
73642;SDS011;61938;48.652;9.292;2023-08-06T12:42:10;1.92;;;0.93;;
73642;SDS011;61938;48.652;9.292;2023-08-06T12:44:37;1.33;;;0.60;;
73642;SDS011;61938;48.652;9.292;2023-08-06T12:47:03;0.70;;;0.60;;
73642;SDS011;61938;48.652;9.292;2023-08-06T12:49:28;1.30;;;0.73;;
73642;SDS011;61938;48.652;9.292;2023-08-06T12:51:55;1.40;;;0.70;;
73642;SDS011;61938;48.652;9.292;2023-08-06T12:54:21;1.38;;;0.90;;
73642;SDS011;61938;48.652;9.292;2023-08-06T12:56:47;3.55;;;0.90;;
73642;SDS011;61938;48.652;9.292;2023-08-06T12:59:17;3.25;;;1.33;;
73642;SDS011;61938;48.652;9.292;2023-08-06T13:01:42;1.50;;;1.10;;
73642;SDS011;61938;48.652;9.292;2023-08-06T13:04:08;2.00;;;1.02;;
73642;SDS011;61938;48.652;9.292;2023-08-06T13:06:34;1.58;;;0.60;;
73642;SDS011;61938;48.652;9.292;2023-08-06T13:09:04;1.17;;;0.90;;
73642;SDS011;61938;48.652;9.292;2023-08-06T13:11:32;3.13;;;0.85;;
73642;SDS011;61938;48.652;9.292;2023-08-06T13:14:04;1.92;;;0.75;;
73642;SDS011;61938;48.652;9.292;2023-08-06T13:16:32;1.27;;;0.77;;
73642;SDS011;61938;48.652;9.292;2023-08-06T13:18:58;1.70;;;0.88;;
73642;SDS011;61938;48.652;9.292;2023-08-06T13:21:24;1.40;;;0.82;;
73642;SDS011;61938;48.652;9.292;2023-08-06T13:23:49;2.05;;;0.80;;
73642;SDS011;61938;48.652;9.292;2023-08-06T13:26:15;1.05;;;0.70;;
73642;SDS011;61938;48.652;9.292;2023-08-06T13:28:41;1.38;;;0.90;;
73642;SDS011;61938;48.652;9.292;2023-08-06T13:31:06;1.80;;;0.88;;
73642;SDS011;61938;48.652;9.292;2023-08-06T13:33:32;2.42;;;1.13;;
73642;SDS011;61938;48.652;9.292;2023-08-06T13:35:57;1.27;;;0.80;;
73642;SDS011;61938;48.652;9.292;2023-08-06T13:38:23;1.88;;;0.90;;
73642;SDS011;61938;48.652;9.292;2023-08-06T13:40:48;1.25;;;0.73;;
73642;SDS011;61938;48.652;9.292;2023-08-06T13:43:14;0.80;;;0.60;;
73642;SDS011;61938;48.652;9.292;2023-08-06T13:45:42;1.70;;;1.08;;
73642;SDS011;61938;48.652;9.292;2023-08-06T13:48:07;0.93;;;0.75;;
73642;SDS011;61938;48.652;9.292;2023-08-06T13:50:33;1.77;;;0.80;;
73642;SDS011;61938;48.652;9.292;2023-08-06T13:52:58;1.80;;;0.90;;
73642;SDS011;61938;48.652;9.292;2023-08-06T13:55:24;2.38;;;0.63;;
73642;SDS011;61938;48.652;9.292;2023-08-06T13:57:49;3.53;;;0.73;;
73642;SDS011;61938;48.652;9.292;2023-08-06T14:00:16;1.23;;;0.50;;
73642;SDS011;61938;48.652;9.292;2023-08-06T14:02:41;3.45;;;0.82;;
73642;SDS011;61938;48.652;9.292;2023-08-06T14:05:08;7.68;;;0.75;;
73642;SDS011;61938;48.652;9.292;2023-08-06T14:07:34;0.85;;;0.55;;
73642;SDS011;61938;48.652;9.292;2023-08-06T14:10:00;2.60;;;1.05;;
73642;SDS011;61938;48.652;9.292;2023-08-06T14:12:25;1.45;;;0.90;;
73642;SDS011;61938;48.652;9.292;2023-08-06T14:14:51;2.42;;;0.90;;
73642;SDS011;61938;48.652;9.292;2023-08-06T14:17:16;1.90;;;0.70;;
73642;SDS011;61938;48.652;9.292;2023-08-06T14:19:42;0.93;;;0.60;;
73642;SDS011;61938;48.652;9.292;2023-08-06T14:22:07;2.53;;;0.80;;
73642;SDS011;61938;48.652;9.292;2023-08-06T14:24:33;1.02;;;0.70;;
73642;SDS011;61938;48.652;9.292;2023-08-06T14:26:58;4.82;;;1.00;;
73642;SDS011;61938;48.652;9.292;2023-08-06T14:29:24;1.08;;;0.70;;
73642;SDS011;61938;48.652;9.292;2023-08-06T14:31:50;4.40;;;0.80;;
73642;SDS011;61938;48.652;9.292;2023-08-06T14:34:16;3.17;;;0.85;;
73642;SDS011;61938;48.652;9.292;2023-08-06T14:36:41;3.78;;;1.00;;
73642;SDS011;61938;48.652;9.292;2023-08-06T14:39:07;2.80;;;1.10;;
73642;SDS011;61938;48.652;9.292;2023-08-06T14:41:32;0.95;;;0.80;;
73642;SDS011;61938;48.652;9.292;2023-08-06T14:43:58;2.17;;;1.23;;
73642;SDS011;61938;48.652;9.292;2023-08-06T14:46:23;4.35;;;1.13;;
73642;SDS011;61938;48.652;9.292;2023-08-06T14:48:49;1.50;;;0.85;;